createdAt,value
2017-11-28T00:01:53.834Z,77.78
2017-11-28T00:04:21.432Z,78.63
2017-11-28T00:06:49.071Z,78.97
2017-11-28T00:09:16.681Z,79.55
2017-11-28T00:11:44.242Z,79.31
2017-11-28T00:14:11.830Z,79.17
2017-11-28T00:16:39.389Z,79.16
2017-11-28T00:19:07.254Z,79.77
2017-11-28T00:21:35.191Z,79.60
2017-11-28T00:24:02.778Z,79.66
2017-11-28T00:26:30.402Z,80.30
2017-11-28T00:28:58.008Z,79.51
2017-11-28T00:31:25.599Z,79.29
2017-11-28T00:33:53.183Z,79.89
2017-11-28T00:36:20.782Z,79.81
2017-11-28T00:38:48.429Z,80.11
2017-11-28T00:41:16.021Z,79.35
2017-11-28T00:43:43.651Z,80.53
2017-11-28T00:46:11.433Z,79.41
2017-11-28T00:48:39.077Z,79.67
2017-11-28T00:51:06.635Z,78.55
2017-11-28T00:53:34.186Z,79.84
2017-11-28T00:56:01.859Z,79.21
2017-11-28T00:58:29.432Z,79.78
2017-11-28T01:00:56.983Z,79.66
2017-11-28T01:03:24.590Z,79.20
2017-11-28T01:05:52.156Z,79.63
2017-11-28T01:08:19.729Z,79.76
2017-11-28T01:10:47.374Z,80.52
2017-11-28T01:13:15.504Z,80.67
2017-11-28T01:15:43.091Z,80.26
2017-11-28T01:18:10.688Z,80.65
2017-11-28T01:20:38.280Z,81.08
2017-11-28T01:23:05.917Z,80.79
2017-11-28T01:25:33.570Z,80.09
2017-11-28T01:28:01.140Z,80.03
2017-11-28T01:30:28.719Z,79.87
2017-11-28T01:32:56.391Z,79.10
2017-11-28T01:35:24.007Z,77.77
2017-11-28T01:37:51.648Z,76.51
2017-11-28T01:40:19.270Z,78.33
2017-11-28T01:42:47.002Z,78.88
2017-11-28T01:45:14.582Z,79.53
2017-11-28T01:47:42.291Z,79.24
2017-11-28T01:50:09.912Z,79.74
2017-11-28T01:52:37.490Z,78.83
2017-11-28T01:55:05.086Z,79.76
2017-11-28T01:57:32.631Z,79.29
2017-11-28T02:00:00.241Z,79.23
2017-11-28T02:02:27.816Z,80.25
2017-11-28T02:04:55.440Z,80.32
2017-11-28T02:07:23.132Z,80.79
2017-11-28T02:09:50.807Z,80.33
2017-11-28T02:12:18.463Z,80.98
2017-11-28T02:14:46.068Z,81.01
2017-11-28T02:17:13.707Z,81.19
2017-11-28T02:19:41.320Z,80.42
2017-11-28T02:22:09.001Z,80.38
2017-11-28T02:24:36.622Z,79.84
2017-11-28T02:27:05.595Z,79.67
2017-11-28T02:29:33.221Z,79.67
2017-11-28T02:32:00.779Z,79.43
2017-11-28T02:34:28.408Z,79.64
2017-11-28T02:36:56.006Z,79.89
2017-11-28T02:39:23.736Z,79.77
2017-11-28T02:41:51.295Z,80.08
2017-11-28T02:44:18.866Z,80.26
2017-11-28T02:46:46.447Z,79.77
2017-11-28T02:49:26.704Z,79.52
2017-11-28T02:52:07.352Z,79.87
2017-11-28T02:54:35.382Z,79.86
2017-11-28T02:57:02.946Z,79.93
2017-11-28T02:59:30.564Z,79.58
2017-11-28T03:01:59.158Z,79.12
2017-11-28T03:04:26.735Z,79.26
2017-11-28T03:06:54.387Z,78.76
2017-11-28T03:09:22.921Z,79.34
2017-11-28T03:11:50.568Z,78.17
2017-11-28T03:14:26.647Z,78.89
2017-11-28T03:16:55.579Z,79.62
2017-11-28T03:19:28.774Z,80.31
2017-11-28T03:22:03.029Z,78.46
2017-11-28T03:27:25.744Z,79.85
2017-11-28T03:29:57.543Z,79.67
2017-11-28T03:32:25.194Z,80.18
2017-11-28T03:34:52.935Z,80.96
2017-11-28T03:37:20.690Z,78.79
2017-11-28T03:39:48.348Z,79.41
2017-11-28T03:42:16.001Z,79.91
2017-11-28T03:47:54.459Z,73.94
2017-11-28T03:50:22.077Z,71.02
2017-11-28T03:52:50.006Z,70.08
2017-11-28T03:55:17.595Z,70.00
2017-11-28T03:57:45.250Z,70.14
2017-11-28T04:00:13.006Z,70.49
2017-11-28T04:02:40.687Z,71.06
2017-11-28T04:05:08.259Z,71.41
2017-11-28T04:07:35.866Z,71.34
2017-11-28T04:10:03.577Z,71.62
2017-11-28T04:12:31.215Z,71.71
2017-11-28T04:14:58.883Z,71.48
2017-11-28T04:17:26.521Z,71.78
2017-11-28T04:19:54.191Z,71.46
2017-11-28T04:22:21.797Z,71.26
2017-11-28T04:24:49.472Z,71.54
2017-11-28T04:27:17.117Z,71.44
2017-11-28T04:29:44.728Z,72.15
2017-11-28T04:32:12.375Z,72.54
2017-11-28T04:34:40.025Z,72.47
2017-11-28T04:37:07.643Z,72.76
2017-11-28T04:39:35.410Z,72.39
2017-11-28T04:42:03.046Z,72.48
2017-11-28T04:44:30.725Z,72.65
2017-11-28T04:46:58.416Z,72.82
2017-11-28T04:49:26.046Z,72.91
2017-11-28T04:51:53.699Z,73.85
2017-11-28T04:54:21.329Z,74.49
2017-11-28T04:56:48.920Z,74.66
2017-11-28T04:59:16.583Z,75.04
2017-11-28T05:01:44.171Z,75.07
2017-11-28T05:04:11.756Z,74.84
2017-11-28T05:06:39.380Z,75.10
2017-11-28T05:09:07.095Z,75.07
2017-11-28T05:11:34.727Z,75.25
2017-11-28T05:14:02.364Z,75.87
2017-11-28T05:16:29.978Z,76.08
2017-11-28T05:18:57.628Z,76.27
2017-11-28T05:21:25.342Z,76.12
2017-11-28T05:23:52.941Z,76.52
2017-11-28T05:26:20.570Z,76.63
2017-11-28T05:28:48.186Z,76.57
2017-11-28T05:31:15.819Z,76.77
2017-11-28T05:33:43.466Z,76.77
2017-11-28T05:36:11.075Z,76.67
2017-11-28T05:38:38.718Z,76.74
2017-11-28T05:41:06.334Z,76.56
2017-11-28T05:43:34.003Z,76.53
2017-11-28T05:46:01.588Z,76.56
2017-11-28T05:48:29.814Z,77.12
2017-11-28T05:50:57.430Z,77.16
2017-11-28T05:53:35.741Z,77.98
2017-11-28T05:56:03.420Z,76.39
2017-11-28T05:58:31.035Z,74.13
2017-11-28T06:00:59.409Z,73.20
2017-11-28T06:03:27.069Z,73.31
2017-11-28T06:05:54.711Z,72.45
2017-11-28T06:08:34.412Z,72.03
2017-11-28T06:11:02.008Z,71.64
2017-11-28T06:13:30.435Z,71.48
2017-11-28T06:15:58.041Z,71.00
2017-11-28T06:18:25.691Z,70.88
2017-11-28T06:20:53.254Z,71.00
2017-11-28T06:23:20.873Z,71.01
2017-11-28T06:25:48.499Z,71.14
2017-11-28T06:28:16.161Z,71.17
2017-11-28T06:30:43.828Z,71.37
2017-11-28T06:33:11.447Z,71.28
2017-11-28T06:35:39.971Z,70.86
2017-11-28T06:38:07.589Z,70.99
2017-11-28T06:40:35.137Z,70.62
2017-11-28T06:43:02.740Z,70.37
2017-11-28T06:45:30.319Z,69.73
2017-11-28T06:47:57.908Z,69.82
2017-11-28T06:50:25.584Z,69.75
2017-11-28T06:52:53.264Z,69.93
2017-11-28T06:55:20.949Z,70.20
2017-11-28T06:57:48.625Z,70.90
2017-11-28T07:00:16.201Z,70.29
2017-11-28T07:02:43.805Z,70.73
2017-11-28T07:05:11.754Z,70.70
2017-11-28T07:07:40.467Z,71.62
2017-11-28T07:10:08.046Z,71.30
2017-11-28T07:12:35.797Z,71.11
2017-11-28T07:15:03.383Z,71.51
2017-11-28T07:17:31.062Z,70.83
2017-11-28T07:19:58.800Z,70.80
2017-11-28T07:22:26.463Z,71.94
2017-11-28T07:24:54.055Z,72.83
2017-11-28T07:27:21.614Z,72.19
2017-11-28T07:29:49.257Z,72.84
2017-11-28T07:32:16.928Z,73.38
2017-11-28T07:34:44.540Z,75.27
2017-11-28T07:37:12.117Z,74.94
2017-11-28T07:39:39.752Z,75.08
2017-11-28T07:42:07.379Z,75.12
2017-11-28T07:44:35.000Z,74.02
2017-11-28T07:47:02.717Z,74.72
2017-11-28T07:49:30.587Z,74.52
2017-11-28T07:51:58.259Z,72.89
2017-11-28T07:54:25.926Z,72.09
2017-11-28T07:56:53.511Z,71.92
2017-11-28T07:59:21.129Z,71.59
2017-11-28T08:01:48.851Z,71.34
2017-11-28T08:04:16.482Z,71.40
2017-11-28T08:06:44.081Z,71.25
2017-11-28T08:09:11.843Z,71.56
2017-11-28T08:11:39.407Z,74.00
2017-11-28T08:14:07.037Z,74.63
2017-11-28T08:16:34.653Z,75.64
2017-11-28T08:19:02.594Z,77.30
2017-11-28T08:21:34.506Z,77.02
2017-11-28T08:24:03.769Z,76.13
2017-11-28T08:26:33.863Z,75.11
2017-11-28T08:29:01.648Z,75.12
2017-11-28T08:31:35.410Z,75.69
2017-11-28T08:34:08.002Z,75.36
2017-11-28T08:36:35.635Z,76.13
2017-11-28T08:39:03.226Z,75.89
2017-11-28T08:44:04.354Z,75.05
2017-11-28T08:46:31.965Z,74.14
2017-11-28T08:49:05.568Z,72.98
2017-11-28T08:51:37.816Z,72.64
2017-11-28T08:54:08.203Z,72.63
2017-11-28T08:56:35.856Z,72.81
2017-11-28T08:59:05.363Z,71.76
2017-11-28T09:01:34.218Z,71.37
2017-11-28T09:04:01.905Z,71.22
2017-11-28T09:06:30.498Z,71.18
2017-11-28T09:08:58.533Z,71.37
2017-11-28T09:11:27.210Z,70.69
2017-11-28T09:13:54.912Z,68.95
2017-11-28T09:16:22.554Z,67.75
2017-11-28T09:18:50.211Z,66.57
2017-11-28T09:21:17.856Z,66.75
2017-11-28T09:23:46.143Z,67.85
2017-11-28T09:26:13.732Z,68.50
2017-11-28T09:28:47.276Z,68.48
2017-11-28T09:31:16.665Z,68.94
2017-11-28T09:33:44.325Z,67.95
2017-11-28T09:36:11.901Z,67.90
2017-11-28T09:38:39.513Z,67.20
2017-11-28T09:41:07.160Z,67.02
2017-11-28T09:43:34.810Z,68.74
2017-11-28T09:46:03.413Z,68.79
2017-11-28T09:48:31.015Z,69.40
2017-11-28T09:50:58.630Z,68.31
2017-11-28T09:53:26.303Z,69.02
2017-11-28T09:55:53.868Z,67.65
2017-11-28T09:58:21.501Z,68.12
2017-11-28T10:00:49.166Z,67.28
2017-11-28T10:03:16.780Z,64.94
2017-11-28T10:05:44.398Z,64.01
2017-11-28T10:08:11.968Z,62.92
2017-11-28T10:10:39.528Z,63.57
2017-11-28T10:13:07.200Z,63.87
2017-11-28T10:15:34.794Z,64.69
2017-11-28T10:18:02.435Z,65.53
2017-11-28T10:20:30.145Z,65.40
2017-11-28T10:22:57.718Z,65.06
2017-11-28T10:25:25.286Z,65.03
2017-11-28T10:27:52.888Z,64.90
2017-11-28T10:30:20.445Z,64.36
2017-11-28T10:35:21.917Z,63.56
2017-11-28T10:37:49.512Z,63.36
2017-11-28T10:40:17.134Z,63.01
2017-11-28T10:42:44.741Z,63.30
2017-11-28T10:45:12.346Z,62.67
2017-11-28T10:47:39.971Z,60.45
2017-11-28T10:50:07.562Z,60.30
2017-11-28T10:52:35.137Z,59.74
2017-11-28T10:55:02.790Z,61.40
2017-11-28T10:57:30.382Z,61.08
2017-11-28T10:59:57.942Z,61.61
2017-11-28T11:02:25.546Z,61.25
2017-11-28T11:04:53.108Z,58.08
2017-11-28T11:07:20.661Z,56.99
2017-11-28T11:09:49.002Z,57.51
2017-11-28T11:12:16.614Z,59.58
2017-11-28T11:14:44.189Z,57.66
2017-11-28T11:17:11.821Z,56.19
2017-11-28T11:19:39.448Z,57.52
2017-11-28T11:22:07.053Z,57.25
2017-11-28T11:24:34.640Z,57.60
2017-11-28T11:27:02.238Z,58.88
2017-11-28T11:29:29.868Z,57.32
2017-11-28T11:31:57.452Z,57.09
2017-11-28T11:34:25.034Z,53.22
2017-11-28T11:36:52.574Z,52.04
2017-11-28T11:39:20.146Z,51.74
2017-11-28T11:41:47.780Z,51.41
2017-11-28T11:46:49.277Z,49.70
2017-11-28T11:49:16.867Z,48.38
2017-11-28T11:51:44.432Z,48.83
2017-11-28T11:54:12.354Z,49.42
2017-11-28T11:56:39.931Z,48.27
2017-11-28T11:59:07.567Z,48.15
2017-11-28T12:01:35.170Z,48.66
2017-11-28T12:04:02.743Z,47.51
2017-11-28T12:06:30.322Z,46.88
2017-11-28T12:08:57.933Z,47.26
2017-11-28T12:11:25.522Z,47.13
2017-11-28T12:13:53.108Z,47.07
2017-11-28T12:16:20.732Z,47.08
2017-11-28T12:18:48.382Z,46.47
2017-11-28T12:21:15.943Z,46.71
2017-11-28T12:23:43.611Z,47.08
2017-11-28T12:26:11.198Z,47.65
2017-11-28T12:28:38.813Z,48.29
2017-11-28T12:31:06.480Z,48.40
2017-11-28T12:33:34.091Z,49.64
2017-11-28T12:36:01.672Z,48.62
2017-11-28T12:38:29.253Z,48.91
2017-11-28T12:40:56.846Z,49.17
2017-11-28T12:43:24.488Z,47.86
2017-11-28T12:45:52.107Z,47.52
2017-11-28T12:48:19.688Z,48.45
2017-11-28T12:50:47.291Z,48.91
2017-11-28T12:53:14.881Z,49.47
2017-11-28T12:55:42.441Z,49.39
2017-11-28T12:58:10.076Z,50.25
2017-11-28T13:00:37.637Z,50.81
2017-11-28T13:03:05.284Z,50.49
2017-11-28T13:05:32.901Z,50.12
2017-11-28T13:08:00.488Z,50.83
2017-11-28T13:10:28.036Z,51.52
2017-11-28T13:12:55.681Z,50.64
2017-11-28T13:15:23.251Z,51.56
2017-11-28T13:17:50.813Z,51.49
2017-11-28T13:20:18.452Z,51.26
2017-11-28T13:22:46.031Z,52.34
2017-11-28T13:25:13.663Z,52.23
2017-11-28T13:27:41.268Z,52.66
2017-11-28T13:30:08.893Z,52.52
2017-11-28T13:32:36.490Z,53.21
2017-11-28T13:35:04.057Z,53.16
2017-11-28T13:37:31.722Z,53.22
2017-11-28T13:39:59.312Z,54.27
2017-11-28T13:42:26.954Z,54.23
2017-11-28T13:44:54.517Z,53.75
2017-11-28T13:47:22.133Z,54.34
2017-11-28T13:49:49.744Z,54.40
2017-11-28T13:52:17.351Z,54.43
2017-11-28T13:54:44.932Z,53.81
2017-11-28T13:57:12.557Z,54.16
2017-11-28T13:59:40.126Z,54.63
2017-11-28T14:02:07.728Z,54.88
2017-11-28T14:04:35.325Z,55.59
2017-11-28T14:07:02.895Z,54.56
2017-11-28T14:09:30.522Z,54.76
2017-11-28T14:12:02.940Z,54.98
2017-11-28T14:14:30.572Z,55.13
2017-11-28T14:16:58.168Z,55.21
2017-11-28T14:22:31.981Z,55.90
2017-11-28T14:25:06.173Z,55.38
2017-11-28T14:27:36.305Z,55.97
2017-11-28T14:30:09.423Z,56.53
2017-11-28T14:35:43.498Z,55.68
2017-11-28T14:38:11.123Z,56.46
2017-11-28T14:40:39.113Z,56.43
2017-11-28T14:43:07.675Z,56.17
2017-11-28T14:45:36.000Z,56.00
2017-11-28T14:48:03.625Z,56.92
2017-11-28T14:53:40.290Z,56.96
2017-11-28T14:56:08.731Z,57.67
2017-11-28T14:58:38.129Z,58.05
2017-11-28T15:01:14.206Z,58.39
2017-11-28T15:03:49.271Z,58.18
2017-11-28T15:06:22.356Z,58.95
2017-11-28T15:09:02.081Z,59.85
2017-11-28T15:11:35.262Z,59.97
2017-11-28T15:17:25.685Z,59.77
2017-11-28T15:20:01.885Z,59.56
2017-11-28T15:22:35.958Z,59.80
2017-11-28T15:28:04.771Z,61.69
2017-11-28T15:30:32.397Z,61.93
2017-11-28T15:33:00.011Z,61.88
2017-11-28T15:35:27.789Z,62.61
2017-11-28T15:37:55.394Z,64.08
2017-11-28T15:40:29.732Z,65.49
2017-11-28T15:42:57.374Z,66.51
2017-11-28T15:45:24.951Z,68.55
2017-11-28T15:47:52.570Z,67.75
2017-11-28T15:50:20.151Z,66.57
2017-11-28T15:52:47.719Z,70.40
2017-11-28T15:55:15.376Z,70.17
2017-11-28T15:57:42.957Z,70.71
2017-11-28T16:00:10.553Z,71.19
2017-11-28T16:02:38.178Z,70.90
2017-11-28T16:05:05.730Z,71.31
2017-11-28T16:07:33.324Z,70.27
2017-11-28T16:10:00.949Z,71.15
2017-11-28T16:12:28.512Z,72.49
2017-11-28T16:14:56.099Z,72.48
2017-11-28T16:17:23.710Z,73.31
2017-11-28T16:19:51.298Z,73.75
2017-11-28T16:22:18.901Z,73.38
2017-11-28T16:24:46.486Z,73.92
2017-11-28T16:27:14.050Z,74.33
2017-11-28T16:29:41.641Z,73.21
2017-11-28T16:32:09.267Z,73.76
2017-11-28T16:34:36.850Z,74.29
2017-11-28T16:37:04.473Z,74.69
2017-11-28T16:39:32.034Z,73.69
2017-11-28T16:41:59.594Z,73.53
2017-11-28T16:44:27.197Z,72.36
2017-11-28T16:46:54.775Z,74.04
2017-11-28T16:49:22.526Z,74.03
2017-11-28T16:51:50.110Z,73.47
2017-11-28T16:54:17.678Z,74.94
2017-11-28T16:56:45.292Z,74.62
2017-11-28T16:59:12.846Z,72.70
2017-11-28T17:01:40.427Z,71.28
2017-11-28T17:04:08.058Z,71.94
2017-11-28T17:06:35.674Z,72.83
2017-11-28T17:09:03.587Z,72.57
2017-11-28T17:11:31.234Z,72.42
2017-11-28T17:13:58.863Z,72.07
2017-11-28T17:16:26.452Z,71.55
2017-11-28T17:18:54.074Z,71.60
2017-11-28T17:21:21.669Z,71.56
2017-11-28T17:23:49.243Z,72.38
2017-11-28T17:26:16.859Z,72.02
2017-11-28T17:28:44.487Z,72.34
2017-11-28T17:31:12.067Z,72.82
2017-11-28T17:33:39.658Z,73.11
2017-11-28T17:36:07.283Z,72.14
2017-11-28T17:38:34.838Z,72.54
2017-11-28T17:41:02.447Z,72.06
2017-11-28T17:43:30.010Z,72.21
2017-11-28T17:45:57.557Z,73.09
2017-11-28T17:48:25.150Z,72.73
2017-11-28T17:50:52.716Z,73.05
2017-11-28T17:53:20.277Z,72.85
2017-11-28T17:55:47.900Z,73.36
2017-11-28T17:58:15.502Z,73.97
2017-11-28T18:00:43.091Z,72.75
2017-11-28T18:03:10.853Z,72.71
2017-11-28T18:05:38.426Z,73.53
2017-11-28T18:08:05.989Z,74.21
2017-11-28T18:10:33.610Z,75.17
2017-11-28T18:13:01.181Z,74.32
2017-11-28T18:15:28.744Z,74.85
2017-11-28T18:17:56.339Z,73.72
2017-11-28T18:20:23.908Z,73.54
2017-11-28T18:22:51.500Z,73.73
2017-11-28T18:25:19.047Z,73.62
2017-11-28T18:27:46.631Z,73.54
2017-11-28T18:30:15.807Z,74.67
2017-11-28T18:32:44.453Z,74.25
2017-11-28T18:35:12.015Z,73.66
2017-11-28T18:37:39.703Z,74.20
2017-11-28T18:40:07.310Z,74.70
2017-11-28T18:42:34.999Z,74.78
2017-11-28T18:45:02.681Z,75.35
2017-11-28T18:47:30.421Z,75.42
2017-11-28T18:49:58.091Z,75.57
2017-11-28T18:52:25.683Z,76.39
2017-11-28T18:54:53.292Z,76.38
2017-11-28T18:57:20.883Z,76.79
2017-11-28T18:59:48.548Z,76.38
2017-11-28T19:05:06.430Z,76.43
2017-11-28T19:07:37.765Z,76.77
2017-11-28T19:10:05.505Z,77.30
2017-11-28T19:12:33.111Z,77.58
2017-11-28T19:15:00.729Z,78.38
2017-11-28T19:17:28.322Z,78.40
2017-11-28T19:19:55.955Z,78.57
2017-11-28T19:22:23.635Z,79.18
2017-11-28T19:24:51.200Z,79.49
2017-11-28T19:27:18.784Z,79.36
2017-11-28T19:29:46.862Z,79.18
2017-11-28T19:32:14.480Z,79.20
2017-11-28T19:34:42.051Z,79.28
2017-11-28T19:37:09.613Z,79.48
2017-11-28T19:39:37.227Z,80.49
2017-11-28T19:42:04.792Z,80.44
2017-11-28T19:44:32.394Z,80.18
2017-11-28T19:47:00.162Z,80.01
2017-11-28T19:49:27.731Z,80.19
2017-11-28T19:51:55.292Z,79.66
2017-11-28T19:54:23.012Z,79.50
2017-11-28T19:56:50.583Z,79.41
2017-11-28T19:59:18.131Z,79.71
2017-11-28T20:01:45.722Z,79.65
2017-11-28T20:04:13.321Z,79.77
2017-11-28T20:06:40.878Z,79.73
2017-11-28T20:09:08.736Z,79.60
2017-11-28T20:11:36.333Z,79.43
2017-11-28T20:14:03.931Z,79.27
2017-11-28T20:16:32.418Z,79.24
2017-11-28T20:19:00.937Z,79.35
2017-11-28T20:21:28.645Z,79.30
2017-11-28T20:23:56.245Z,79.45
2017-11-28T20:26:24.380Z,79.27
2017-11-28T20:28:51.964Z,79.44
2017-11-28T20:31:19.681Z,79.42
2017-11-28T20:33:47.251Z,79.39
2017-11-28T20:36:14.823Z,80.09
2017-11-28T20:38:42.427Z,80.64
2017-11-28T20:41:11.836Z,80.41
2017-11-28T20:43:39.426Z,80.24
2017-11-28T20:46:07.122Z,79.93
2017-11-28T20:48:34.693Z,79.42
2017-11-28T20:51:02.264Z,79.60
2017-11-28T20:53:30.038Z,79.17
2017-11-28T20:55:57.621Z,80.02
2017-11-28T20:58:25.228Z,79.92
2017-11-28T21:00:52.891Z,79.45
2017-11-28T21:03:20.470Z,78.15
2017-11-28T21:05:48.120Z,77.83
2017-11-28T21:08:15.745Z,77.80
2017-11-28T21:10:43.312Z,77.64
2017-11-28T21:13:11.312Z,77.59
2017-11-28T21:15:38.878Z,77.43
2017-11-28T21:18:06.647Z,77.37
2017-11-28T21:20:34.253Z,77.19
2017-11-28T21:23:01.875Z,77.15
2017-11-28T21:25:29.454Z,77.13
2017-11-28T21:27:57.055Z,76.80
2017-11-28T21:30:24.704Z,77.85
2017-11-28T21:32:52.312Z,78.41
2017-11-28T21:35:19.889Z,78.46
2017-11-28T21:37:47.527Z,78.22
2017-11-28T21:40:15.111Z,78.49
2017-11-28T21:42:42.673Z,79.21
2017-11-28T21:45:10.428Z,79.64
2017-11-28T21:47:38.019Z,79.94
2017-11-28T21:50:05.568Z,80.57
2017-11-28T21:52:33.169Z,80.61
2017-11-28T21:55:00.772Z,79.98
2017-11-28T21:57:28.408Z,79.63
2017-11-28T21:59:56.065Z,80.30
2017-11-28T22:02:23.710Z,80.91
2017-11-28T22:04:51.265Z,80.82
2017-11-28T22:07:19.094Z,80.99
2017-11-28T22:09:46.733Z,80.80
2017-11-28T22:12:14.292Z,80.32
2017-11-28T22:14:41.980Z,81.76
2017-11-28T22:17:09.662Z,82.04
2017-11-28T22:19:37.354Z,81.69
2017-11-28T22:22:05.055Z,81.41
2017-11-28T22:24:32.652Z,81.46
2017-11-28T22:27:00.305Z,81.89
2017-11-28T22:29:27.883Z,81.91
2017-11-28T22:31:55.495Z,82.01
2017-11-28T22:34:23.149Z,82.09
2017-11-28T22:36:50.720Z,82.12
2017-11-28T22:39:18.302Z,82.01
2017-11-28T22:41:45.877Z,81.59
2017-11-28T22:44:13.483Z,82.35
2017-11-28T22:46:41.056Z,82.79
2017-11-28T22:49:08.745Z,83.03
2017-11-28T22:51:36.354Z,82.84
2017-11-28T22:54:04.194Z,82.64
2017-11-28T22:56:31.789Z,82.37
2017-11-28T22:58:59.356Z,82.22
2017-11-28T23:01:26.961Z,82.42
2017-11-28T23:03:54.579Z,82.82
2017-11-28T23:06:22.146Z,83.46
2017-11-28T23:08:49.711Z,82.96
2017-11-28T23:11:17.354Z,82.57
2017-11-28T23:14:01.805Z,82.17
2017-11-28T23:16:29.459Z,82.19
2017-11-28T23:18:57.033Z,81.93
2017-11-28T23:21:24.607Z,81.52
2017-11-28T23:23:52.246Z,81.46
2017-11-28T23:26:19.942Z,81.28
2017-11-28T23:28:47.560Z,81.10
2017-11-28T23:31:16.065Z,81.26
2017-11-28T23:33:44.136Z,81.87
2017-11-28T23:36:11.711Z,82.05
2017-11-28T23:38:39.361Z,82.12
2017-11-28T23:41:06.940Z,82.40
2017-11-28T23:43:34.494Z,82.20
2017-11-28T23:46:02.107Z,82.09
2017-11-28T23:48:29.710Z,82.29
2017-11-28T23:50:57.275Z,82.50
2017-11-28T23:53:24.917Z,82.58
2017-11-28T23:55:52.505Z,82.75
2017-11-28T23:58:20.108Z,83.30
